Aviation Digital Data Service (ADDS)

Output produced by METARs form (0153 UTC 25 April 2015)
found at http://aviationweather.gov/adds/metars/
 
KDEN 242359Z 2500/2606 30015KT P6SM VCSH SCT070 BKN120 
     TEMPO 2500/2501 30015G25KT 
     FM250200 26010KT P6SM SCT100 BKN200 
     FM250500 23008KT P6SM SCT200 
     FM251400 15006KT P6SM SCT200 
     FM252000 15012KT P6SM FEW080 BKN140 
     FM252200 15015KT P6SM VCTS SCT080CB BKN140 
     TEMPO 2523/2602 VRB20G30KT -TSRA BKN080CB 
     FM260200 32012KT P6SM SCT060 BKN120 
     TEMPO 2602/2606 -SHRA BKN060